Time;durP1;ratioP1;P1;durP2;ratioP2;P2;SDS_P1;SDS_P2;PMS_P1;PMS_P2;Temp;Humidity;BMP_temperature;BMP_pressure;BME280_temperature;BME280_humidity;BME280_pressure;Samples;Min_cycle;Max_cycle;Signal;HPM_P1;HPM_P2
2022/09/14 00:01:55;;;;;;;;;;;;;;;15.83;100.00;-25510.56;5094601;28;19916;-82
2022/09/14 00:04:24;;;;;;;;;;;;;;;15.75;100.00;-25510.31;5075678;28;20295;-81
2022/09/14 00:06:50;;;;;;;;;;;;;;;15.77;100.00;-25511.03;5063009;28;19920;-82
2022/09/14 00:09:20;;;;;;;;;;;;;;;15.84;100.00;-25512.91;5089379;28;20342;-83
2022/09/14 00:11:46;;;;;;;;;;;;;;;15.78;100.00;-25511.19;5090340;28;19928;-84
2022/09/14 00:14:14;;;;;;;;;;;;;;;15.80;100.00;-25511.75;5062326;28;19916;-84
2022/09/14 00:16:40;;;;;;;;;;;;;;;15.82;100.00;-25512.34;5076021;28;19942;-85
2022/09/14 00:19:06;;;;;;;;;;;;;;;15.79;100.00;-25511.63;5073338;28;19920;-84
2022/09/14 00:21:33;;;;;;;;;;;;;;;15.77;100.00;-25511.03;5072073;28;19916;-83
2022/09/14 00:23:58;;;;;;;;;;;;;;;15.76;100.00;-25510.72;5075073;28;19916;-83
2022/09/14 00:26:24;;;;;;;;;;;;;;;15.78;100.00;-25511.19;5074158;28;20303;-84
2022/09/14 00:28:55;;;;;;;;;;;;;;;15.78;100.00;-25511.19;5078944;28;19928;-83
2022/09/14 00:31:21;;;;;;;;;;;;;;;15.72;100.00;-25509.56;5056403;28;19923;-81
2022/09/14 00:33:52;;;;;;;;;;;;;;;15.68;100.00;-25508.41;5073675;28;19916;-81
2022/09/14 00:36:28;;;;;;;;;;;;;;;15.69;100.00;-25508.69;5069662;28;20077;-79
2022/09/14 00:38:59;;;;;;;;;;;;;;;15.73;100.00;-25509.88;5051574;28;19912;-79
2022/09/14 00:41:30;;;;;;;;;;;;;;;15.76;100.00;-25510.72;5042306;28;19931;-81
2022/09/14 00:44:17;;;;;;;;;;;;;;;15.76;100.00;-25510.72;5068178;28;19924;-82
2022/09/14 00:46:47;;;;;;;;;;;;;;;15.76;100.00;-25510.72;5055717;28;19920;-83
2022/09/14 00:49:36;;;;;;;;;;;;;;;15.69;100.00;-25508.69;5055758;28;20015;-83
2022/09/14 00:52:07;;;;;;;;;;;;;;;15.64;100.00;-25507.25;5073779;28;19916;-83
2022/09/14 00:54:33;;;;;;;;;;;;;;;15.60;100.00;-25506.09;5089581;28;20279;-82
2022/09/14 00:57:01;;;;;;;;;;;;;;;15.61;100.00;-25506.38;5093763;28;19915;-82
2022/09/14 00:59:28;;;;;;;;;;;;;;;15.62;100.00;-25506.81;5075107;28;19916;-83
2022/09/14 01:01:53;;;;;;;;;;;;;;;15.58;100.00;-25505.66;5075894;28;19923;-83
2022/09/14 01:04:22;;;;;;;;;;;;;;;15.58;100.00;-25505.66;5075927;28;19920;-83
2022/09/14 01:06:50;;;;;;;;;;;;;;;15.70;100.00;-25509.00;5093770;28;19920;-82
2022/09/14 01:09:31;;;;;;;;;;;;;;;15.75;100.00;-25510.44;5059907;28;20027;-82
2022/09/14 01:12:05;;;;;;;;;;;;;;;15.67;100.00;-25507.97;5039551;28;20007;-83
2022/09/14 01:14:53;;;;;;;;;;;;;;;15.58;100.00;-25505.50;5055909;28;20266;-82
2022/09/14 01:17:45;;;;;;;;;;;;;;;15.58;100.00;-25505.66;5054989;28;20529;-82
2022/09/14 01:20:26;;;;;;;;;;;;;;;15.51;100.00;-25503.47;5081099;28;19920;-84
2022/09/14 01:23:28;;;;;;;;;;;;;;;15.53;100.00;-25504.06;5079491;28;19970;-81
2022/09/14 01:26:10;;;;;;;;;;;;;;;15.46;100.00;-25502.16;5011686;28;19948;-83
2022/09/14 01:28:58;;;;;;;;;;;;;;;15.50;100.00;-25503.19;5054560;28;19921;-83
2022/09/14 01:31:36;;;;;;;;;;;;;;;15.47;100.00;-25502.31;5060525;28;19916;-83
2022/09/14 01:34:10;;;;;;;;;;;;;;;15.50;100.00;-25503.31;5075791;28;19927;-83
2022/09/14 01:36:37;;;;;;;;;;;;;;;15.56;100.00;-25504.91;5077840;28;19919;-83
2022/09/14 01:39:05;;;;;;;;;;;;;;;15.52;100.00;-25503.91;5097124;28;19920;-84
2022/09/14 01:41:31;;;;;;;;;;;;;;;15.51;100.00;-25503.47;5073571;28;19931;-82
2022/09/14 01:44:19;;;;;;;;;;;;;;;15.49;100.00;-25502.88;5059063;28;19924;-82
2022/09/14 01:46:46;;;;;;;;;;;;;;;15.48;100.00;-25502.59;5074475;28;19920;-81
2022/09/14 01:49:12;;;;;;;;;;;;;;;15.50;100.00;-25503.31;5069628;28;19916;-83
2022/09/14 01:51:44;;;;;;;;;;;;;;;15.45;100.00;-25501.88;5059139;28;20323;-84
2022/09/14 01:54:17;;;;;;;;;;;;;;;15.49;100.00;-25502.88;5068565;28;19920;-84
2022/09/14 01:56:51;;;;;;;;;;;;;;;15.48;100.00;-25502.75;5053772;28;20565;-84
2022/09/14 01:59:19;;;;;;;;;;;;;;;15.44;100.00;-25501.72;5056176;28;20380;-83
2022/09/14 02:02:01;;;;;;;;;;;;;;;15.41;100.00;-25500.69;5074032;28;19927;-82
2022/09/14 02:04:44;;;;;;;;;;;;;;;15.40;100.00;-25500.56;5063979;28;19955;-82
2022/09/14 02:07:09;;;;;;;;;;;;;;;15.49;100.00;-25502.88;5057952;28;19927;-81
2022/09/14 02:09:35;;;;;;;;;;;;;;;15.46;100.00;-25502.00;5058345;28;19921;-82
2022/09/14 02:12:01;;;;;;;;;;;;;;;15.40;100.00;-25500.56;5058286;28;20372;-82
2022/09/14 02:14:30;;;;;;;;;;;;;;;15.31;100.00;-25497.94;5057806;28;19931;-82
2022/09/14 02:16:56;;;;;;;;;;;;;;;15.33;100.00;-25498.53;5056054;28;19920;-80
2022/09/14 02:19:21;;;;;;;;;;;;;;;15.35;100.00;-25499.09;5058191;28;20028;-80
2022/09/14 02:21:47;;;;;;;;;;;;;;;15.38;100.00;-25499.97;5057315;28;19924;-83
2022/09/14 02:24:23;;;;;;;;;;;;;;;15.40;100.00;-25500.56;5080030;28;19925;-82
2022/09/14 02:26:50;;;;;;;;;;;;;;;15.43;100.00;-25501.28;5061270;28;19920;-82
2022/09/14 02:29:15;;;;;;;;;;;;;;;15.47;100.00;-25502.31;5074147;28;20348;-82
2022/09/14 02:31:49;;;;;;;;;;;;;;;15.49;100.00;-25502.88;5078557;28;19920;-80
2022/09/14 02:34:35;;;;;;;;;;;;;;;15.47;100.00;-25502.31;5095461;28;19966;-82
2022/09/14 02:37:00;;;;;;;;;;;;;;;15.41;100.00;-25500.84;5077588;28;19919;-79
2022/09/14 02:39:34;;;;;;;;;;;;;;;15.40;100.00;-25500.56;5060969;28;20001;-79
2022/09/14 02:41:59;;;;;;;;;;;;;;;15.37;100.00;-25499.53;5066154;28;19924;-78
2022/09/14 02:44:44;;;;;;;;;;;;;;;15.35;100.00;-25498.97;5072287;28;19923;-82
2022/09/14 02:47:20;;;;;;;;;;;;;;;15.29;100.00;-25497.34;5070744;28;19916;-78
2022/09/14 02:50:04;;;;;;;;;;;;;;;15.30;100.00;-25497.50;5066225;28;19916;-82
2022/09/14 02:52:30;;;;;;;;;;;;;;;15.25;100.00;-25496.19;5059998;28;20583;-80
2022/09/14 02:54:57;;;;;;;;;;;;;;;15.17;100.00;-25493.88;5077911;28;19942;-82
2022/09/14 02:57:23;;;;;;;;;;;;;;;15.11;100.00;-25492.25;5068840;28;19924;-82
2022/09/14 02:59:48;;;;;;;;;;;;;;;15.16;100.00;-25493.72;5057903;28;20004;-82
2022/09/14 03:02:14;;;;;;;;;;;;;;;15.14;100.00;-25493.00;5074469;28;20407;-83
2022/09/14 03:04:39;;;;;;;;;;;;;;;15.17;100.00;-25493.88;5093449;28;19917;-81
2022/09/14 03:07:04;;;;;;;;;;;;;;;15.17;100.00;-25493.88;5073493;28;20424;-80
2022/09/14 03:09:29;;;;;;;;;;;;;;;15.13;100.00;-25492.84;5075820;28;20328;-82
2022/09/14 03:11:55;;;;;;;;;;;;;;;15.10;100.00;-25491.97;5063980;28;19916;-83
2022/09/14 03:14:21;;;;;;;;;;;;;;;15.17;100.00;-25494.00;5085561;28;20364;-83
2022/09/14 03:16:46;;;;;;;;;;;;;;;15.24;100.00;-25495.91;5082634;28;19920;-83
2022/09/14 03:19:11;;;;;;;;;;;;;;;15.22;100.00;-25495.47;5082095;28;19916;-83
2022/09/14 03:21:37;;;;;;;;;;;;;;;15.21;100.00;-25495.03;5076896;28;19916;-83
2022/09/14 03:24:02;;;;;;;;;;;;;;;15.22;100.00;-25495.47;5077549;28;19985;-83
2022/09/14 03:26:28;;;;;;;;;;;;;;;15.19;100.00;-25494.59;5094378;28;19920;-83
2022/09/14 03:28:55;;;;;;;;;;;;;;;15.21;100.00;-25495.19;5092093;28;20385;-83
2022/09/14 03:31:20;;;;;;;;;;;;;;;15.28;100.00;-25496.94;5084281;28;20434;-84
2022/09/14 03:33:53;;;;;;;;;;;;;;;15.31;100.00;-25497.94;5064443;28;19917;-83
2022/09/14 03:36:19;;;;;;;;;;;;;;;15.30;100.00;-25497.66;5073539;28;20621;-82
2022/09/14 03:38:46;;;;;;;;;;;;;;;15.29;100.00;-25497.34;5072518;28;19925;-83
2022/09/14 03:41:12;;;;;;;;;;;;;;;15.26;100.00;-25496.50;5083269;28;19927;-83
2022/09/14 03:43:38;;;;;;;;;;;;;;;15.18;100.00;-25494.16;5059013;28;20015;-84
2022/09/14 03:46:05;;;;;;;;;;;;;;;15.21;100.00;-25495.03;5065355;28;19921;-84
2022/09/14 03:48:30;;;;;;;;;;;;;;;15.15;100.00;-25493.28;5074607;28;19956;-84
2022/09/14 03:50:58;;;;;;;;;;;;;;;15.16;100.00;-25493.72;5090575;28;19924;-83
2022/09/14 03:53:25;;;;;;;;;;;;;;;15.15;100.00;-25493.28;5056690;28;20376;-83
2022/09/14 03:55:50;;;;;;;;;;;;;;;15.05;100.00;-25490.53;5076741;28;20050;-84
2022/09/14 03:58:15;;;;;;;;;;;;;;;15.07;100.00;-25491.09;5076271;28;20053;-82
2022/09/14 04:00:40;;;;;;;;;;;;;;;15.04;100.00;-25490.22;5057053;28;19978;-83
2022/09/14 04:03:08;;;;;;;;;;;;;;;15.00;100.00;-25489.22;5088783;28;20050;-82
2022/09/14 04:05:33;;;;;;;;;;;;;;;15.03;100.00;-25489.94;5055981;28;19974;-83
2022/09/14 04:07:59;;;;;;;;;;;;;;;15.01;100.00;-25489.50;5077885;28;20533;-84
2022/09/14 04:10:24;;;;;;;;;;;;;;;15.01;100.00;-25489.50;5083131;28;20303;-83
2022/09/14 04:12:57;;;;;;;;;;;;;;;15.09;100.00;-25491.69;5066794;28;19916;-84
2022/09/14 04:15:22;;;;;;;;;;;;;;;15.08;100.00;-25491.53;5029009;28;19921;-82
2022/09/14 04:17:48;;;;;;;;;;;;;;;15.12;100.00;-25492.41;5036113;28;19928;-83
2022/09/14 04:20:13;;;;;;;;;;;;;;;15.08;100.00;-25491.53;5053781;28;20004;-83
2022/09/14 04:22:49;;;;;;;;;;;;;;;15.01;100.00;-25489.50;5082792;28;19916;-83
2022/09/14 04:25:25;;;;;;;;;;;;;;;15.06;100.00;-25490.97;5073725;28;19916;-83
2022/09/14 04:27:51;;;;;;;;;;;;;;;15.06;100.00;-25490.81;5075782;28;19989;-82
2022/09/14 04:30:16;;;;;;;;;;;;;;;15.12;100.00;-25492.41;5075590;28;19920;-82
2022/09/14 04:32:44;;;;;;;;;;;;;;;15.17;100.00;-25493.88;5093850;28;19923;-82
2022/09/14 04:35:10;;;;;;;;;;;;;;;15.15;100.00;-25493.44;5064553;28;19920;-82
2022/09/14 04:37:35;;;;;;;;;;;;;;;15.17;100.00;-25493.88;5054429;28;20379;-82
2022/09/14 04:40:01;;;;;;;;;;;;;;;15.07;100.00;-25491.25;5055645;28;19921;-80
2022/09/14 04:42:38;;;;;;;;;;;;;;;15.14;100.00;-25493.00;5052983;28;19925;-80
2022/09/14 04:45:04;;;;;;;;;;;;;;;15.18;100.00;-25494.31;5056036;28;19924;-82
2022/09/14 04:47:29;;;;;;;;;;;;;;;15.16;100.00;-25493.56;5063467;28;19921;-84
2022/09/14 04:49:54;;;;;;;;;;;;;;;15.12;100.00;-25492.41;5085650;28;19917;-83
2022/09/14 04:52:21;;;;;;;;;;;;;;;15.09;100.00;-25491.69;5055353;28;20019;-84
2022/09/14 04:54:47;;;;;;;;;;;;;;;15.09;100.00;-25491.69;5084182;28;19921;-83
2022/09/14 04:57:12;;;;;;;;;;;;;;;15.11;100.00;-25492.13;5074733;28;19994;-83
2022/09/14 04:59:37;;;;;;;;;;;;;;;15.14;100.00;-25493.13;5072763;28;19920;-79
2022/09/14 05:02:02;;;;;;;;;;;;;;;15.16;100.00;-25493.72;5079669;28;19978;-79
2022/09/14 05:04:32;;;;;;;;;;;;;;;15.17;100.00;-25493.88;5054805;28;20387;-79
2022/09/14 05:06:57;;;;;;;;;;;;;;;15.12;100.00;-25492.41;5055052;28;19965;-78
2022/09/14 05:09:23;;;;;;;;;;;;;;;15.17;100.00;-25493.88;5066419;28;20018;-76
2022/09/14 05:11:50;;;;;;;;;;;;;;;15.13;100.00;-25492.69;5074130;28;19923;-78
2022/09/14 05:14:18;;;;;;;;;;;;;;;15.11;100.00;-25492.25;5073280;28;19962;-77
2022/09/14 05:16:44;;;;;;;;;;;;;;;15.01;100.00;-25489.50;5054783;28;19927;-78
2022/09/14 05:19:11;;;;;;;;;;;;;;;15.04;100.00;-25490.38;5072479;28;19912;-79
2022/09/14 05:21:36;;;;;;;;;;;;;;;14.96;100.00;-25488.03;5052148;28;19921;-78
2022/09/14 05:24:11;;;;;;;;;;;;;;;15.05;100.00;-25490.53;5054418;28;19928;-79
2022/09/14 05:26:36;;;;;;;;;;;;;;;14.98;100.00;-25488.63;5054221;28;19923;-77
2022/09/14 05:29:02;;;;;;;;;;;;;;;15.04;100.00;-25490.22;5053728;28;19917;-78
2022/09/14 05:31:28;;;;;;;;;;;;;;;14.97;100.00;-25488.34;5087104;28;19924;-79
2022/09/14 05:33:54;;;;;;;;;;;;;;;14.91;100.00;-25486.59;5066412;28;19920;-78
2022/09/14 05:36:19;;;;;;;;;;;;;;;14.85;100.00;-25485.00;5063705;28;19966;-78
2022/09/14 05:38:45;;;;;;;;;;;;;;;14.89;100.00;-25486.16;5054472;28;19916;-77
2022/09/14 05:41:11;;;;;;;;;;;;;;;14.92;100.00;-25486.75;5086763;28;19920;-82
2022/09/14 05:43:39;;;;;;;;;;;;;;;14.99;100.00;-25488.91;5062611;28;19928;-75
2022/09/14 05:46:06;;;;;;;;;;;;;;;15.03;100.00;-25489.94;5074536;28;20375;-77
2022/09/14 05:48:36;;;;;;;;;;;;;;;15.07;100.00;-25491.09;5056611;28;19924;-82
2022/09/14 05:51:03;;;;;;;;;;;;;;;15.05;100.00;-25490.53;5052449;28;20366;-79
2022/09/14 05:53:30;;;;;;;;;;;;;;;15.11;100.00;-25492.13;5068672;28;20381;-80
2022/09/14 05:56:01;;;;;;;;;;;;;;;15.19;100.00;-25494.44;5064758;28;19942;-82
2022/09/14 05:58:26;;;;;;;;;;;;;;;15.21;100.00;-25495.03;5078493;28;19923;-82
2022/09/14 06:00:51;;;;;;;;;;;;;;;15.24;100.00;-25495.91;5078766;28;19916;-83
2022/09/14 06:03:19;;;;;;;;;;;;;;;15.07;100.00;-25491.25;5078111;28;19963;-83
2022/09/14 06:05:44;;;;;;;;;;;;;;;15.10;100.00;-25491.81;5077879;28;20030;-81
2022/09/14 06:08:09;;;;;;;;;;;;;;;15.11;100.00;-25492.13;5069303;28;19917;-82
2022/09/14 06:10:34;;;;;;;;;;;;;;;15.15;100.00;-25493.28;5057926;28;19922;-82
2022/09/14 06:13:05;;;;;;;;;;;;;;;15.25;100.00;-25496.34;5058178;28;19967;-84
2022/09/14 06:15:32;;;;;;;;;;;;;;;15.13;100.00;-25492.84;5057666;28;19970;-84
2022/09/14 06:17:57;;;;;;;;;;;;;;;15.13;100.00;-25492.69;5058087;28;19916;-85
2022/09/14 06:20:22;;;;;;;;;;;;;;;15.06;100.00;-25490.81;5057933;28;20269;-83
2022/09/14 06:22:48;;;;;;;;;;;;;;;14.99;100.00;-25488.91;5057540;28;19927;-79
2022/09/14 06:25:14;;;;;;;;;;;;;;;14.94;100.00;-25487.31;5054023;28;19962;-84
2022/09/14 06:27:39;;;;;;;;;;;;;;;14.92;100.00;-25486.88;5058025;28;19924;-85
2022/09/14 06:30:05;;;;;;;;;;;;;;;14.91;100.00;-25486.59;5056099;28;19925;-78
2022/09/14 06:32:31;;;;;;;;;;;;;;;14.82;100.00;-25484.13;5073654;28;20368;-79
2022/09/14 06:34:56;;;;;;;;;;;;;;;14.89;100.00;-25486.00;5056788;28;20484;-82
2022/09/14 06:37:22;;;;;;;;;;;;;;;14.93;100.00;-25487.03;5056889;28;19926;-82
2022/09/14 06:39:47;;;;;;;;;;;;;;;14.99;100.00;-25488.91;5056553;28;19921;-78
2022/09/14 06:42:13;;;;;;;;;;;;;;;15.03;100.00;-25490.09;5056530;28;19943;-79
2022/09/14 06:44:39;;;;;;;;;;;;;;;15.11;100.00;-25492.25;5079331;28;19924;-80
2022/09/14 06:47:04;;;;;;;;;;;;;;;15.08;100.00;-25491.53;5056885;28;19917;-78
2022/09/14 06:49:29;;;;;;;;;;;;;;;15.09;100.00;-25491.69;5056550;28;19917;-84
2022/09/14 06:51:56;;;;;;;;;;;;;;;15.16;100.00;-25493.56;5072683;28;19922;-81
2022/09/14 06:54:23;;;;;;;;;;;;;;;15.11;100.00;-25492.13;5056438;28;19916;-77
2022/09/14 06:56:48;;;;;;;;;;;;;;;15.13;100.00;-25492.84;5056905;28;19917;-82
2022/09/14 06:59:15;;;;;;;;;;;;;;;15.28;100.00;-25496.94;5056398;28;20452;-82
2022/09/14 07:01:41;;;;;;;;;;;;;;;15.27;100.00;-25496.78;5056364;28;19916;-77
2022/09/14 07:04:08;;;;;;;;;;;;;;;15.22;100.00;-25495.31;5075022;28;19916;-78
2022/09/14 07:06:38;;;;;;;;;;;;;;;15.16;100.00;-25493.56;5075544;28;19931;-76
2022/09/14 07:09:06;;;;;;;;;;;;;;;15.15;100.00;-25493.44;5075839;28;20006;-77
2022/09/14 07:11:32;;;;;;;;;;;;;;;15.19;100.00;-25494.44;5058868;28;19958;-84
2022/09/14 07:13:58;;;;;;;;;;;;;;;15.21;100.00;-25495.03;5047989;28;19948;-83
2022/09/14 07:16:24;;;;;;;;;;;;;;;15.28;100.00;-25496.94;5050831;28;19920;-80
2022/09/14 07:18:57;;;;;;;;;;;;;;;15.32;100.00;-25498.09;5055974;28;20066;-78
2022/09/14 07:21:22;;;;;;;;;;;;;;;15.25;100.00;-25496.34;5056340;28;19920;-81
2022/09/14 07:23:51;;;;;;;;;;;;;;;15.32;100.00;-25498.22;5056630;28;20318;-82
2022/09/14 07:26:24;;;;;;;;;;;;;;;15.12;100.00;-25492.41;5058850;28;19993;-83
2022/09/14 07:28:51;;;;;;;;;;;;;;;15.09;100.00;-25491.69;5077285;28;20301;-84
2022/09/14 07:31:18;;;;;;;;;;;;;;;15.20;100.00;-25494.88;5076417;28;19963;-82
2022/09/14 07:33:45;;;;;;;;;;;;;;;15.08;100.00;-25491.38;5059930;28;19928;-83
2022/09/14 07:36:11;;;;;;;;;;;;;;;15.26;100.00;-25496.50;5056372;28;19920;-78
2022/09/14 07:38:46;;;;;;;;;;;;;;;15.29;100.00;-25497.34;5073501;28;20483;-83
2022/09/14 07:41:12;;;;;;;;;;;;;;;15.16;100.00;-25493.56;5059879;28;19974;-84
2022/09/14 07:43:38;;;;;;;;;;;;;;;15.14;100.00;-25493.00;5071625;28;19916;-84
2022/09/14 07:46:04;;;;;;;;;;;;;;;15.17;100.00;-25494.00;5076255;28;19982;-83
2022/09/14 07:48:30;;;;;;;;;;;;;;;15.20;100.00;-25494.75;5076449;28;20340;-85
2022/09/14 07:50:59;;;;;;;;;;;;;;;15.25;100.00;-25496.34;5076381;28;19923;-80
2022/09/14 07:53:37;;;;;;;;;;;;;;;15.23;100.00;-25495.75;5055843;28;19931;-85
2022/09/14 07:56:03;;;;;;;;;;;;;;;15.31;100.00;-25497.78;5055824;28;20257;-84
2022/09/14 07:58:28;;;;;;;;;;;;;;;15.33;100.00;-25498.53;5065645;28;20007;-81
2022/09/14 08:00:58;;;;;;;;;;;;;;;15.42;100.00;-25501.13;5064353;28;20011;-83
2022/09/14 08:03:23;;;;;;;;;;;;;;;15.28;100.00;-25497.06;5054806;28;19921;-84
2022/09/14 08:05:48;;;;;;;;;;;;;;;15.38;100.00;-25499.97;5054890;28;20280;-83
2022/09/14 08:08:14;;;;;;;;;;;;;;;15.40;100.00;-25500.41;5054029;28;20041;-84
2022/09/14 08:10:39;;;;;;;;;;;;;;;15.43;100.00;-25501.44;5055025;28;20011;-83
2022/09/14 08:13:04;;;;;;;;;;;;;;;15.40;100.00;-25500.41;5088086;28;20185;-78
2022/09/14 08:15:30;;;;;;;;;;;;;;;15.41;100.00;-25500.84;5071363;28;19931;-83
2022/09/14 08:17:57;;;;;;;;;;;;;;;15.34;100.00;-25498.81;5088650;28;19917;-84
2022/09/14 08:20:22;;;;;;;;;;;;;;;15.41;100.00;-25500.84;5053890;28;19917;-78
2022/09/14 08:22:48;;;;;;;;;;;;;;;15.35;100.00;-25499.09;5087091;28;20372;-79
2022/09/14 08:25:13;;;;;;;;;;;;;;;15.43;100.00;-25501.28;5072622;28;19928;-78
2022/09/14 08:27:38;;;;;;;;;;;;;;;15.35;100.00;-25499.09;5087233;28;19938;-82
2022/09/14 08:30:04;;;;;;;;;;;;;;;15.51;100.00;-25503.63;5087507;28;19952;-80
2022/09/14 08:32:32;;;;;;;;;;;;;;;15.46;100.00;-25502.16;5056139;28;19917;-83
2022/09/14 08:34:57;;;;;;;;;;;;;;;15.46;100.00;-25502.16;5053892;28;19971;-83
2022/09/14 08:37:23;;;;;;;;;;;;;;;15.53;100.00;-25504.19;5086799;28;19972;-83
2022/09/14 08:39:48;;;;;;;;;;;;;;;15.55;100.00;-25504.78;5088688;28;20545;-84
2022/09/14 08:42:16;;;;;;;;;;;;;;;15.60;100.00;-25506.09;5086909;28;19921;-85
2022/09/14 08:44:50;;;;;;;;;;;;;;;15.73;100.00;-25507.94;5054081;28;19920;-84
2022/09/14 08:47:27;;;;;;;;;;;;;;;15.73;100.00;-23533.16;5054420;28;19916;-84
2022/09/14 08:49:52;;;;;;;;;;;;;;;15.61;100.00;-20895.94;5054555;28;19958;-85
2022/09/14 08:52:36;;;;;;;;;;;;;;;15.67;100.00;-20567.81;5054376;28;19960;-83
2022/09/14 08:55:16;;;;;;;;;;;;;;;15.82;100.00;-20241.25;5049132;28;19927;-82
2022/09/14 08:57:44;;;;;;;;;;;;;;;15.77;100.00;-19581.34;5054323;28;19916;-81
2022/09/14 09:00:15;;;;;;;;;;;;;;;15.87;100.00;-19583.09;5053843;28;19958;-85
2022/09/14 09:02:44;;;;;;;;;;;;;;;15.93;100.00;-18924.88;5071697;28;19939;-84
2022/09/14 09:05:19;;;;;;;;;;;;;;;15.89;100.00;-18264.78;5053517;28;20327;-84
2022/09/14 09:07:49;;;;;;;;;;;;;;;15.80;100.00;-17603.78;5054358;28;19927;-84
2022/09/14 09:10:15;;;;;;;;;;;;;;;15.75;100.00;-17603.03;5053717;28;19916;-83
2022/09/14 09:12:46;;;;;;;;;;;;;;;15.74;100.00;-17932.59;5071901;28;19943;-84
2022/09/14 09:15:26;;;;;;;;;;;;;;;15.89;100.00;-18594.44;5054189;28;19917;-84
2022/09/14 09:17:57;;;;;;;;;;;;;;;16.00;100.00;-20244.94;5053944;28;19916;-84
2022/09/14 09:20:31;;;;;;;;;;;;;;;16.03;100.00;-20575.22;5053997;28;19951;-84
2022/09/14 09:23:06;;;;;;;;;;;;;;;15.90;100.00;-19254.03;5053956;28;19917;-85
2022/09/14 09:25:50;;;;;;;;;;;;;;;15.83;100.00;-19252.69;5053554;28;19916;-84
2022/09/14 09:28:15;;;;;;;;;;;;;;;15.84;100.00;-18263.84;5053589;28;19917;-81
2022/09/14 09:30:41;;;;;;;;;;;;;;;15.91;100.00;-17935.38;5055342;28;19947;-80
2022/09/14 09:33:12;;;;;;;;;;;;;;;15.99;100.00;-17276.91;5056659;28;19917;-79
2022/09/14 09:35:37;;;;;;;;;;;;;;;16.07;100.00;-16288.25;5057249;28;19917;-80
2022/09/14 09:38:07;;;;;;;;;;;;;;;16.06;100.00;-15628.03;5056807;28;20045;-79
2022/09/14 09:40:35;;;;;;;;;;;;;;;15.96;100.00;-14966.63;5057444;28;19920;-80
2022/09/14 09:43:11;;;;;;;;;;;;;;;16.09;100.00;-14968.19;5074258;28;19920;-79
2022/09/14 09:45:55;;;;;;;;;;;;;;;16.09;100.00;-14638.03;5056739;28;20372;-82
2022/09/14 09:48:26;;;;;;;;;;;;;;;16.12;100.00;-14308.13;5057403;28;19921;-80
2022/09/14 09:51:02;;;;;;;;;;;;;;;15.99;100.00;-12655.69;5058108;28;19935;-80
2022/09/14 09:53:31;;;;;;;;;;;;;;;16.05;100.00;-12656.19;5074960;28;20447;-81
2022/09/14 09:55:56;;;;;;;;;;;;;;;16.08;100.00;-11995.69;5058178;28;19912;-83
2022/09/14 09:58:22;;;;;;;;;;;;;;;16.04;100.00;-10673.69;5088910;28;19920;-79
2022/09/14 10:00:54;;;;;;;;;;;;;;;16.20;100.00;-10343.88;5047181;28;20276;-80
2022/09/14 10:03:23;;;;;;;;;;;;;;;16.18;100.00;-8690.50;5037438;28;20457;-79
2022/09/14 10:05:58;;;;;;;;;;;;;;;16.19;100.00;-9351.94;5039529;28;19921;-78
2022/09/14 10:08:26;;;;;;;;;;;;;;;16.28;100.00;-9682.91;5062444;28;19928;-78
2022/09/14 10:10:51;;;;;;;;;;;;;;;16.43;100.00;-10344.91;5077892;28;19916;-78
2022/09/14 10:13:30;;;;;;;;;;;;;;;16.62;100.00;-11668.72;5061305;28;19927;-78
2022/09/14 10:16:12;;;;;;;;;;;;;;;16.51;100.00;-9683.69;5056943;28;19923;-81
2022/09/14 10:18:42;;;;;;;;;;;;;;;16.69;100.00;-8029.34;5056528;28;20009;-79
2022/09/14 10:21:07;;;;;;;;;;;;;;;16.63;100.00;-5380.25;5056811;28;19964;-80
2022/09/14 10:23:35;;;;;;;;;;;;;;;16.67;100.00;-1734.41;5056898;28;19959;-79
2022/09/14 10:26:12;;;;;;;;;;;;;;;16.58;100.00;254.47;5057307;28;19923;-78
2022/09/14 10:28:39;;;;;;;;;;;;;;;16.37;100.00;2241.94;5057036;28;19920;-83
2022/09/14 10:31:08;;;;;;;;;;;;;;;16.44;100.00;1579.50;5057709;28;19916;-82
2022/09/14 10:33:35;;;;;;;;;;;;;;;16.51;100.00;585.31;5073536;28;19967;-78
2022/09/14 10:36:19;;;;;;;;;;;;;;;16.43;100.00;-410.53;5057763;28;19929;-83
2022/09/14 10:38:50;;;;;;;;;;;;;;;16.58;100.00;-2066.78;5057743;28;19920;-81
2022/09/14 10:41:22;;;;;;;;;;;;;;;16.65;100.00;-2066.13;5056470;28;19924;-83
2022/09/14 10:44:02;;;;;;;;;;;;;;;16.62;100.00;-1403.31;5057077;28;19920;-83
2022/09/14 10:46:45;;;;;;;;;;;;;;;16.73;100.00;-3723.00;5057565;28;19962;-82
2022/09/14 10:49:36;;;;;;;;;;;;;;;16.88;100.00;-3722.13;5057020;28;20009;-83
2022/09/14 10:52:19;;;;;;;;;;;;;;;16.90;100.00;-4053.53;5057544;28;19921;-83
2022/09/14 10:55:03;;;;;;;;;;;;;;;16.80;100.00;-3391.06;5056900;28;20008;-85
2022/09/14 10:57:43;;;;;;;;;;;;;;;16.97;100.00;-4384.63;5055848;28;19923;-81
2022/09/14 11:00:15;;;;;;;;;;;;;;;17.09;100.00;-6041.53;5055135;28;19928;-79
2022/09/14 11:03:03;;;;;;;;;;;;;;;17.01;100.00;-5710.34;5056616;28;19920;-82
2022/09/14 11:05:28;;;;;;;;;;;;;;;17.19;100.00;-5709.78;5058598;28;20266;-80
2022/09/14 11:08:12;;;;;;;;;;;;;;;17.34;100.00;-6040.91;5057130;28;19927;-82
2022/09/14 11:10:56;;;;;;;;;;;;;;;17.09;100.00;-2725.78;5055919;28;19948;-79
2022/09/14 11:13:22;;;;;;;;;;;;;;;17.05;100.00;-403.50;5055394;28;19925;-83
2022/09/14 11:15:47;;;;;;;;;;;;;;;17.02;100.00;-1731.16;5059966;28;19920;-77
2022/09/14 11:18:22;;;;;;;;;;;;;;;17.15;100.00;-2061.75;5055650;28;20341;-83
2022/09/14 11:20:47;;;;;;;;;;;;;;;17.15;100.00;-3388.78;5064695;28;20015;-82
2022/09/14 11:23:12;;;;;;;;;;;;;;;17.46;100.00;-3718.56;5073098;28;19975;-83
2022/09/14 11:25:41;;;;;;;;;;;;;;;17.53;100.00;-1394.38;5075411;28;19931;-82
2022/09/14 11:28:10;;;;;;;;;;;;;;;17.65;100.00;-1725.28;5060834;28;19917;-81
2022/09/14 11:30:45;;;;;;;;;;;;;;;17.55;100.00;-1394.13;5055871;28;19920;-82
2022/09/14 11:33:32;;;;;;;;;;;;;;;17.50;100.00;-2058.66;5056243;28;19917;-82
2022/09/14 11:36:08;;;;;;;;;;;;;;;17.57;100.00;-3054.03;5056517;28;19948;-81
2022/09/14 11:38:44;;;;;;;;;;;;;;;17.76;100.00;-1059.84;5074554;28;19938;-82
2022/09/14 11:41:23;;;;;;;;;;;;;;;17.60;100.00;-397.25;5071083;28;19997;-81
2022/09/14 11:44:24;;;;;;;;;;;;;;;17.57;100.00;931.38;5054651;28;19931;-79
2022/09/14 11:47:17;;;;;;;;;;;;;;;17.38;100.00;-731.75;4984489;28;19929;-82
2022/09/14 11:49:49;;;;;;;;;;;;;;;17.02;100.00;-4715.91;5054070;28;20292;-83
2022/09/14 11:52:29;;;;;;;;;;;;;;;17.13;100.00;-9354.53;5075576;28;19920;-81
2022/09/14 11:54:55;;;;;;;;;;;;;;;17.18;100.00;-12003.31;5053691;28;19977;-81
2022/09/14 11:57:30;;;;;;;;;;;;;;;17.23;100.00;-13989.13;5055066;28;19968;-82
2022/09/14 11:59:57;;;;;;;;;;;;;;;17.48;100.00;-15645.91;5049589;28;19916;-82
2022/09/14 12:02:22;;;;;;;;;;;;;;;17.38;100.00;-14983.13;5054883;28;19916;-78
2022/09/14 12:05:03;;;;;;;;;;;;;;;17.39;100.00;-16306.34;5056088;28;19940;-84
2022/09/14 12:07:47;;;;;;;;;;;;;;;17.62;100.00;-17963.19;5055823;28;20007;-81
2022/09/14 12:10:12;;;;;;;;;;;;;;;17.74;100.00;-16311.03;5056304;28;19916;-83
2022/09/14 12:12:41;;;;;;;;;;;;;;;17.69;100.00;-14655.75;5055910;28;19951;-83
2022/09/14 12:15:25;;;;;;;;;;;;;;;17.61;100.00;-14654.78;5055726;28;19917;-81
2022/09/14 12:18:05;;;;;;;;;;;;;;;17.70;100.00;-15648.75;5055886;28;19916;-80
2022/09/14 12:20:34;;;;;;;;;;;;;;;17.89;100.00;-12670.81;5056206;28;19956;-83
2022/09/14 12:23:25;;;;;;;;;;;;;;;17.86;100.00;-11676.66;5055923;28;20265;-83
2022/09/14 12:26:11;;;;;;;;;;;;;;;18.10;100.00;-9025.47;5054836;28;20008;-83
2022/09/14 12:28:36;;;;;;;;;;;;;;;18.08;100.00;-5375.09;5053333;28;19923;-83
2022/09/14 12:31:01;;;;;;;;;;;;;;;18.01;100.00;-1721.97;5054589;28;19916;-82
2022/09/14 12:33:32;;;;;;;;;;;;;;;18.26;100.00;-3049.03;5055208;28;19931;-78
2022/09/14 12:36:11;;;;;;;;;;;;;;;18.22;100.00;607.47;5055270;28;20315;-81
2022/09/14 12:38:36;;;;;;;;;;;;;;;18.30;100.00;2937.72;5055361;28;19917;-83
2022/09/14 12:41:01;;;;;;;;;;;;;;;18.40;100.00;5270.31;5055235;28;19962;-81
2022/09/14 12:43:34;;;;;;;;;;;;;;;18.41;100.00;7603.03;5054808;28;19916;-79